Time;durP1;ratioP1;P1;durP2;ratioP2;P2;SDS_P1;SDS_P2;PMS_P1;PMS_P2;Temp;Humidity;BMP_temperature;BMP_pressure;BME280_temperature;BME280_humidity;BME280_pressure;Samples;Min_cycle;Max_cycle;Signal;HPM_P1;HPM_P2
2020/12/08 00:02:02;;;;;;;30.00;23.53;;;5.90;99.90;;;;;;5044189;28;20250;-58
2020/12/08 00:04:29;;;;;;;31.10;25.60;;;5.90;99.90;;;;;;5048856;28;20848;-58
2020/12/08 00:06:56;;;;;;;28.27;24.53;;;5.70;99.90;;;;;;5048710;28;20524;-57
2020/12/08 00:09:24;;;;;;;28.13;23.53;;;5.60;99.90;;;;;;5050654;28;20342;-57
2020/12/08 00:11:51;;;;;;;28.27;23.03;;;5.50;99.90;;;;;;5063843;28;20534;-56
2020/12/08 00:14:18;;;;;;;30.40;25.73;;;5.40;99.90;;;;;;5058281;28;20262;-55
2020/12/08 00:16:47;;;;;;;36.37;30.83;;;5.30;99.90;;;;;;5049087;28;20984;-56
2020/12/08 00:19:14;;;;;;;26.20;22.50;;;5.30;99.90;;;;;;5049017;28;20333;-57
2020/12/08 00:21:45;;;;;;;24.80;22.10;;;5.30;99.90;;;;;;5048897;28;20564;-56
2020/12/08 00:24:13;;;;;;;23.23;20.83;;;5.20;99.90;;;;;;5049088;28;20524;-55
2020/12/08 00:26:42;;;;;;;24.47;20.93;;;5.20;99.90;;;;;;5048955;28;20510;-57
2020/12/08 00:29:10;;;;;;;22.30;19.73;;;5.20;99.90;;;;;;5048417;28;20877;-56
2020/12/08 00:31:38;;;;;;;22.43;20.03;;;5.20;99.90;;;;;;5048296;28;20479;-56
2020/12/08 00:34:06;;;;;;;22.40;18.67;;;5.40;99.90;;;;;;5049057;28;20247;-57
2020/12/08 00:36:34;;;;;;;25.47;21.93;;;5.40;99.90;;;;;;5050873;28;20235;-57
2020/12/08 00:39:01;;;;;;;23.17;20.67;;;5.30;99.90;;;;;;5052477;28;20269;-56
2020/12/08 00:41:28;;;;;;;26.43;21.23;;;5.20;99.90;;;;;;5052575;28;20536;-57
2020/12/08 00:43:56;;;;;;;23.77;21.13;;;5.30;99.90;;;;;;5052526;28;20481;-57
2020/12/08 00:46:24;;;;;;;22.10;19.33;;;5.20;99.90;;;;;;5052590;28;20572;-57
2020/12/08 00:48:52;;;;;;;21.47;19.17;;;5.20;99.90;;;;;;5052168;28;20566;-56
2020/12/08 00:51:20;;;;;;;21.67;18.50;;;5.20;99.90;;;;;;5067563;28;20481;-56
2020/12/08 00:53:49;;;;;;;21.47;19.17;;;5.20;99.90;;;;;;5050875;28;20478;-57
2020/12/08 00:56:17;;;;;;;20.70;18.13;;;5.20;99.90;;;;;;5068421;28;20321;-58
2020/12/08 00:58:51;;;;;;;21.60;17.90;;;5.20;99.90;;;;;;5050357;28;20239;-57
2020/12/08 01:01:20;;;;;;;20.43;18.20;;;5.10;99.90;;;;;;5049516;28;20238;-56
2020/12/08 01:03:47;;;;;;;20.17;17.97;;;5.10;99.90;;;;;;5055704;28;20274;-58
2020/12/08 01:06:19;;;;;;;21.40;17.60;;;5.20;99.90;;;;;;5047511;28;20626;-57
2020/12/08 01:08:48;;;;;;;19.83;17.73;;;5.10;99.90;;;;;;5035580;28;20501;-57
2020/12/08 01:11:16;;;;;;;19.17;16.77;;;5.10;99.90;;;;;;5030775;28;20561;-56
2020/12/08 01:13:44;;;;;;;19.70;17.60;;;5.10;99.90;;;;;;5032212;28;20900;-56
2020/12/08 01:16:23;;;;;;;18.03;15.97;;;5.10;99.90;;;;;;5047386;28;20518;-57
2020/12/08 01:18:53;;;;;;;18.03;16.13;;;5.10;99.90;;;;;;5045239;28;20483;-55
2020/12/08 01:21:21;;;;;;;18.90;15.53;;;5.10;99.90;;;;;;5030330;28;20841;-57
2020/12/08 01:23:49;;;;;;;17.30;15.50;;;5.10;99.90;;;;;;5030661;28;20482;-56
2020/12/08 01:26:23;;;;;;;19.83;15.70;;;5.30;99.90;;;;;;5032629;28;20471;-57
2020/12/08 01:28:52;;;;;;;17.23;15.27;;;5.20;99.90;;;;;;5077701;28;20295;-55
2020/12/08 01:31:31;;;;;;;17.13;15.03;;;5.10;99.90;;;;;;5049556;28;20239;-58
2020/12/08 01:34:00;;;;;;;15.53;13.80;;;5.10;99.90;;;;;;5050343;28;20242;-57
2020/12/08 01:36:29;;;;;;;18.40;16.37;;;5.20;99.90;;;;;;5050357;28;20470;-58
2020/12/08 01:38:56;;;;;;;18.37;15.57;;;5.20;99.90;;;;;;5049954;28;20479;-58
2020/12/08 01:41:23;;;;;;;16.53;14.83;;;5.10;99.90;;;;;;5049893;28;20972;-58
2020/12/08 01:43:52;;;;;;;16.70;14.97;;;5.10;99.90;;;;;;5066864;28;20493;-56
2020/12/08 01:46:24;;;;;;;16.20;14.50;;;5.10;99.90;;;;;;5050309;28;20553;-58
2020/12/08 01:48:53;;;;;;;16.20;14.50;;;5.10;99.90;;;;;;5061920;28;21033;-55
2020/12/08 01:51:22;;;;;;;16.03;14.40;;;5.10;99.90;;;;;;5065429;28;20478;-57
2020/12/08 01:53:53;;;;;;;15.20;13.47;;;5.10;99.90;;;;;;5063378;28;20562;-56
2020/12/08 01:56:28;;;;;;;16.00;13.73;;;5.10;99.90;;;;;;5063399;28;20913;-57
2020/12/08 01:59:02;;;;;;;15.57;13.87;;;5.10;99.90;;;;;;5044985;28;20904;-57
2020/12/08 02:01:32;;;;;;;14.63;13.03;;;5.10;99.90;;;;;;5062396;28;20471;-57
2020/12/08 02:04:00;;;;;;;15.47;13.87;;;5.10;99.90;;;;;;5047162;28;20554;-57
2020/12/08 02:06:28;;;;;;;15.20;13.23;;;5.10;99.90;;;;;;5051501;28;20469;-57
2020/12/08 02:08:58;;;;;;;14.30;12.70;;;5.10;99.90;;;;;;5047490;28;20506;-58
2020/12/08 02:11:31;;;;;;;16.13;14.43;;;5.10;99.90;;;;;;5046363;28;20482;-56
2020/12/08 02:13:59;;;;;;;16.27;14.63;;;5.20;99.90;;;;;;5052457;28;20483;-58
2020/12/08 02:16:26;;;;;;;15.43;13.83;;;5.20;99.90;;;;;;5029762;28;21056;-56
2020/12/08 02:18:54;;;;;;;16.43;14.73;;;5.10;99.90;;;;;;5043044;28;20980;-57
2020/12/08 02:21:32;;;;;;;16.43;14.73;;;5.20;99.90;;;;;;5042669;28;20479;-56
2020/12/08 02:24:06;;;;;;;14.93;13.43;;;5.20;99.90;;;;;;5009557;28;20480;-56
2020/12/08 02:26:33;;;;;;;16.53;14.73;;;5.20;99.90;;;;;;5011092;28;20242;-56
2020/12/08 02:29:05;;;;;;;14.37;12.87;;;5.20;99.90;;;;;;5021635;28;20486;-57
2020/12/08 02:31:34;;;;;;;15.70;13.97;;;5.20;99.90;;;;;;5040862;28;20242;-58
2020/12/08 02:34:02;;;;;;;14.40;12.90;;;5.10;99.90;;;;;;5050734;28;20238;-57
2020/12/08 02:36:31;;;;;;;15.23;13.63;;;5.10;99.90;;;;;;5049276;28;20486;-55
2020/12/08 02:38:59;;;;;;;14.67;12.97;;;5.10;99.90;;;;;;5045798;28;20609;-55
2020/12/08 02:41:27;;;;;;;14.00;12.47;;;5.10;99.90;;;;;;5028687;28;20240;-57
2020/12/08 02:43:55;;;;;;;15.03;13.43;;;5.10;99.90;;;;;;5030684;28;20519;-57
2020/12/08 02:46:24;;;;;;;14.33;12.83;;;5.10;99.90;;;;;;5029235;28;20481;-57
2020/12/08 02:48:54;;;;;;;15.60;14.00;;;5.10;99.90;;;;;;5048164;28;20504;-57
2020/12/08 02:51:25;;;;;;;14.77;13.17;;;5.10;99.90;;;;;;5048385;28;20232;-55
2020/12/08 02:53:57;;;;;;;14.97;13.47;;;5.10;99.90;;;;;;5065468;28;20482;-57
2020/12/08 02:56:25;;;;;;;14.33;12.83;;;5.10;99.90;;;;;;5048509;28;20679;-57
2020/12/08 02:58:55;;;;;;;14.60;13.07;;;5.10;99.90;;;;;;5048329;28;20478;-56
2020/12/08 03:01:25;;;;;;;14.23;12.77;;;5.10;99.90;;;;;;5047803;28;20490;-55
2020/12/08 03:03:55;;;;;;;15.87;13.80;;;5.10;99.90;;;;;;5043816;28;20562;-57
2020/12/08 03:06:25;;;;;;;15.20;13.60;;;5.20;99.90;;;;;;5046873;28;20243;-56
2020/12/08 03:08:57;;;;;;;16.40;13.77;;;5.20;99.90;;;;;;5050458;28;20605;-57
2020/12/08 03:11:31;;;;;;;14.93;13.37;;;5.20;99.90;;;;;;5081891;28;20485;-57
2020/12/08 03:14:03;;;;;;;15.27;13.40;;;5.10;99.90;;;;;;5048573;28;20775;-58
2020/12/08 03:16:32;;;;;;;15.20;13.60;;;5.20;99.90;;;;;;5037696;28;20231;-58
2020/12/08 03:18:59;;;;;;;14.67;13.17;;;5.10;99.90;;;;;;5045343;28;20468;-57
2020/12/08 03:21:32;;;;;;;16.20;13.57;;;5.10;99.90;;;;;;5028054;28;20974;-57
2020/12/08 03:24:02;;;;;;;15.50;12.57;;;5.10;99.90;;;;;;5044876;28;20515;-57
2020/12/08 03:26:29;;;;;;;13.80;12.40;;;5.10;99.90;;;;;;5027776;28;20528;-57
2020/12/08 03:28:57;;;;;;;14.13;12.63;;;5.10;99.90;;;;;;5029644;28;20479;-57
2020/12/08 03:31:26;;;;;;;16.10;12.10;;;5.10;99.90;;;;;;5038386;28;20819;-56
2020/12/08 03:33:54;;;;;;;13.17;11.77;;;5.10;99.90;;;;;;5061343;28;20525;-55
2020/12/08 03:36:22;;;;;;;12.90;11.60;;;5.10;99.90;;;;;;5029407;28;20482;-57
2020/12/08 03:38:49;;;;;;;12.57;11.37;;;5.10;99.90;;;;;;5049362;28;20546;-57
2020/12/08 03:41:22;;;;;;;13.40;12.00;;;5.10;99.90;;;;;;5081483;28;20505;-57
2020/12/08 03:43:53;;;;;;;12.97;11.57;;;5.00;99.90;;;;;;5042741;28;20505;-56
2020/12/08 03:46:21;;;;;;;13.43;12.03;;;5.10;99.90;;;;;;5027594;28;20541;-56
2020/12/08 03:48:49;;;;;;;13.50;12.10;;;5.00;99.90;;;;;;5044259;28;20485;-58
2020/12/08 03:51:18;;;;;;;13.10;11.80;;;5.00;99.90;;;;;;5027893;28;20907;-56
2020/12/08 03:53:46;;;;;;;14.07;12.67;;;5.00;99.90;;;;;;5029167;28;20248;-57
2020/12/08 03:56:17;;;;;;;13.00;11.70;;;5.00;99.90;;;;;;5027849;28;20479;-56
2020/12/08 03:58:47;;;;;;;12.17;10.97;;;5.00;99.90;;;;;;5008074;28;20567;-56
2020/12/08 04:01:17;;;;;;;14.10;11.63;;;5.00;99.90;;;;;;5033939;28;20557;-58
2020/12/08 04:03:45;;;;;;;13.97;12.50;;;5.20;99.90;;;;;;5073918;28;20486;-57
2020/12/08 04:06:14;;;;;;;13.80;12.30;;;5.10;99.90;;;;;;5047357;28;20473;-56
2020/12/08 04:08:42;;;;;;;13.73;12.33;;;5.10;99.90;;;;;;5038776;28;21197;-56
2020/12/08 04:11:10;;;;;;;12.83;11.53;;;5.10;99.90;;;;;;5031276;28;20568;-57
2020/12/08 04:13:42;;;;;;;15.37;13.77;;;5.10;99.90;;;;;;5029069;28;20471;-57
2020/12/08 04:16:15;;;;;;;16.17;14.10;;;5.10;99.90;;;;;;5048824;28;20311;-56
2020/12/08 04:18:47;;;;;;;14.13;12.60;;;5.40;99.90;;;;;;5027341;28;20498;-57
2020/12/08 04:21:21;;;;;;;14.80;13.20;;;5.40;99.90;;;;;;5029100;28;20477;-57
2020/12/08 04:23:50;;;;;;;17.07;14.57;;;5.60;99.90;;;;;;5060841;28;20543;-56
2020/12/08 04:26:17;;;;;;;16.80;14.57;;;5.70;99.90;;;;;;5040291;28;20506;-58
2020/12/08 04:28:47;;;;;;;15.23;13.63;;;5.50;99.90;;;;;;5047543;28;20560;-58
2020/12/08 04:31:18;;;;;;;16.03;14.33;;;5.60;99.90;;;;;;5041018;28;20470;-55
2020/12/08 04:33:46;;;;;;;16.73;13.53;;;5.80;99.90;;;;;;5049061;28;21565;-56
2020/12/08 04:36:17;;;;;;;14.93;13.40;;;5.80;99.90;;;;;;5048789;28;20469;-56
2020/12/08 04:38:45;;;;;;;15.47;13.87;;;5.70;99.90;;;;;;5048877;28;20521;-57
2020/12/08 04:41:20;;;;;;;13.87;12.47;;;5.60;99.90;;;;;;5048696;28;20317;-56
2020/12/08 04:43:48;;;;;;;13.73;12.27;;;5.30;99.90;;;;;;5047237;28;21049;-56
2020/12/08 04:46:19;;;;;;;13.53;11.67;;;5.20;99.90;;;;;;5048962;28;20490;-56
2020/12/08 04:48:47;;;;;;;14.77;13.20;;;5.50;99.90;;;;;;5048784;28;20569;-57
2020/12/08 04:51:15;;;;;;;13.87;12.37;;;5.60;99.90;;;;;;5048237;28;20528;-56
2020/12/08 04:53:43;;;;;;;14.47;12.60;;;5.40;99.90;;;;;;5048217;28;20482;-56
2020/12/08 04:56:10;;;;;;;14.93;13.37;;;5.20;99.90;;;;;;5048580;28;20480;-56
2020/12/08 04:58:37;;;;;;;16.73;13.50;;;5.10;99.90;;;;;;5046293;28;20486;-55
2020/12/08 05:01:05;;;;;;;18.43;14.43;;;5.00;99.90;;;;;;5045524;28;20844;-56
2020/12/08 05:03:34;;;;;;;16.67;14.93;;;5.10;99.90;;;;;;5047855;28;20895;-58
2020/12/08 05:06:04;;;;;;;14.80;13.03;;;5.00;99.90;;;;;;5048490;28;20478;-55
2020/12/08 05:08:32;;;;;;;18.27;15.37;;;5.20;99.90;;;;;;5048065;28;20520;-55
2020/12/08 05:11:08;;;;;;;19.67;17.57;;;5.60;99.90;;;;;;5046797;28;20296;-57
2020/12/08 05:13:35;;;;;;;17.57;15.60;;;5.70;99.90;;;;;;5037533;28;20235;-56
2020/12/08 05:16:05;;;;;;;18.97;16.43;;;5.90;99.90;;;;;;5028763;28;21031;-58
2020/12/08 05:18:35;;;;;;;16.40;14.40;;;5.70;99.90;;;;;;5028219;28;20494;-55
2020/12/08 05:21:09;;;;;;;17.63;15.30;;;5.50;99.90;;;;;;5028200;28;20483;-57
2020/12/08 05:23:40;;;;;;;14.87;13.37;;;5.40;99.90;;;;;;5029421;28;20480;-57
2020/12/08 05:26:08;;;;;;;14.53;12.93;;;5.40;99.90;;;;;;5032226;28;20248;-56
2020/12/08 05:28:36;;;;;;;15.70;12.27;;;5.60;99.90;;;;;;5031483;28;20486;-56
2020/12/08 05:31:04;;;;;;;15.83;13.47;;;5.70;99.90;;;;;;5038985;28;20316;-58
2020/12/08 05:33:31;;;;;;;15.67;13.77;;;5.50;99.90;;;;;;5051237;28;20493;-57
2020/12/08 05:36:01;;;;;;;15.80;13.57;;;5.30;99.90;;;;;;5051887;28;20486;-56
2020/12/08 05:38:36;;;;;;;14.13;12.63;;;5.30;99.90;;;;;;5051453;28;20326;-56
2020/12/08 05:41:05;;;;;;;13.43;12.03;;;5.20;99.90;;;;;;5051565;28;21048;-58
2020/12/08 05:43:38;;;;;;;12.93;11.63;;;5.10;99.90;;;;;;5050706;28;20565;-58
2020/12/08 05:46:07;;;;;;;13.13;11.77;;;4.90;99.90;;;;;;5051375;28;20520;-55
2020/12/08 05:48:37;;;;;;;12.80;11.50;;;4.90;99.90;;;;;;5051353;28;20238;-56
2020/12/08 05:51:07;;;;;;;12.63;11.30;;;4.80;99.90;;;;;;5051294;28;20238;-56
2020/12/08 05:53:35;;;;;;;12.93;11.57;;;4.80;99.90;;;;;;5050961;28;20482;-58
2020/12/08 05:56:06;;;;;;;13.03;11.73;;;4.70;99.90;;;;;;5048916;28;20481;-57
2020/12/08 05:58:34;;;;;;;12.83;11.63;;;4.70;99.90;;;;;;5047276;28;21243;-58
2020/12/08 06:01:03;;;;;;;12.50;11.27;;;4.70;99.90;;;;;;5050273;28;20841;-56
2020/12/08 06:03:30;;;;;;;12.33;11.03;;;4.70;99.90;;;;;;5051269;28;20475;-57
2020/12/08 06:06:07;;;;;;;12.57;11.27;;;4.70;99.90;;;;;;5051274;28;20493;-56
2020/12/08 06:08:45;;;;;;;12.10;10.90;;;4.60;99.90;;;;;;5050457;28;20539;-58
2020/12/08 06:11:14;;;;;;;12.57;11.27;;;4.60;99.90;;;;;;5041203;28;20564;-56
2020/12/08 06:13:47;;;;;;;11.50;10.40;;;4.60;99.90;;;;;;5042356;28;20547;-57
2020/12/08 06:16:17;;;;;;;13.13;11.23;;;4.70;99.90;;;;;;5047707;28;20485;-57
2020/12/08 06:18:45;;;;;;;15.23;13.37;;;4.80;99.90;;;;;;5049273;28;21019;-56
2020/12/08 06:21:22;;;;;;;14.23;12.47;;;4.80;99.90;;;;;;5049800;28;20554;-57
2020/12/08 06:23:52;;;;;;;12.63;11.10;;;4.70;99.90;;;;;;5049402;28;20535;-57
2020/12/08 06:26:24;;;;;;;12.50;11.20;;;4.70;99.90;;;;;;5050341;28;20543;-57
2020/12/08 06:28:53;;;;;;;11.30;10.23;;;4.60;99.90;;;;;;5049700;28;20532;-57
2020/12/08 06:31:21;;;;;;;12.40;11.10;;;4.50;99.90;;;;;;5048567;28;20478;-57
2020/12/08 06:33:50;;;;;;;11.30;10.10;;;4.50;99.90;;;;;;5049600;28;20896;-58
2020/12/08 06:36:19;;;;;;;13.37;11.67;;;4.50;99.90;;;;;;5050153;28;20511;-57
2020/12/08 06:38:56;;;;;;;14.73;12.33;;;4.60;99.90;;;;;;5049233;28;21061;-57
2020/12/08 06:41:29;;;;;;;13.20;11.87;;;4.50;99.90;;;;;;5049296;28;20535;-55
2020/12/08 06:43:58;;;;;;;13.63;12.23;;;4.50;99.90;;;;;;5049110;28;20474;-56
2020/12/08 06:46:25;;;;;;;13.30;11.27;;;4.60;99.90;;;;;;5049389;28;20508;-57
2020/12/08 06:49:01;;;;;;;15.83;12.57;;;4.60;99.90;;;;;;5048770;28;20525;-57
2020/12/08 06:51:30;;;;;;;12.67;11.37;;;4.50;99.90;;;;;;5046075;28;20504;-57
2020/12/08 06:53:57;;;;;;;11.73;10.63;;;4.40;99.90;;;;;;5047711;28;20561;-56
2020/12/08 06:56:31;;;;;;;12.63;11.10;;;4.40;99.90;;;;;;5046865;28;20907;-55
2020/12/08 06:58:59;;;;;;;12.23;11.03;;;4.30;99.90;;;;;;5049054;28;20508;-57
2020/12/08 07:01:26;;;;;;;12.60;11.40;;;4.50;99.90;;;;;;5048386;28;20490;-58
2020/12/08 07:03:55;;;;;;;11.87;10.70;;;4.40;99.90;;;;;;5049328;28;20472;-57
2020/12/08 07:06:22;;;;;;;11.83;10.63;;;4.30;99.90;;;;;;5049179;28;20827;-57
2020/12/08 07:08:51;;;;;;;12.17;10.97;;;4.30;99.90;;;;;;5047215;28;20480;-58
2020/12/08 07:11:19;;;;;;;12.00;10.80;;;4.30;99.90;;;;;;5046830;28;20470;-57
2020/12/08 07:13:58;;;;;;;11.73;10.63;;;4.30;99.90;;;;;;5025862;28;21002;-58
2020/12/08 07:16:27;;;;;;;12.37;11.07;;;4.30;99.90;;;;;;5026483;28;20510;-58
2020/12/08 07:18:56;;;;;;;11.97;10.77;;;4.30;99.90;;;;;;5026464;28;21036;-58
2020/12/08 07:21:24;;;;;;;11.77;10.60;;;4.30;99.90;;;;;;5026353;28;20896;-58
2020/12/08 07:24:10;;;;;;;12.73;11.43;;;4.30;99.90;;;;;;5026818;28;20561;-58
2020/12/08 07:26:38;;;;;;;14.77;12.53;;;4.40;99.90;;;;;;5042952;28;20502;-56
2020/12/08 07:29:06;;;;;;;13.50;12.10;;;4.40;99.90;;;;;;5044285;28;20490;-58
2020/12/08 07:31:34;;;;;;;12.73;11.37;;;4.30;99.90;;;;;;5044389;28;20849;-57
2020/12/08 07:34:01;;;;;;;12.97;11.57;;;4.30;99.90;;;;;;5049323;28;21009;-57
2020/12/08 07:36:30;;;;;;;13.10;11.50;;;4.30;99.90;;;;;;5049146;28;20474;-57
2020/12/08 07:38:59;;;;;;;13.20;11.80;;;4.40;99.90;;;;;;5049588;28;20481;-57
2020/12/08 07:41:30;;;;;;;13.27;11.97;;;4.50;99.90;;;;;;5048026;28;20489;-56
2020/12/08 07:43:59;;;;;;;13.03;11.63;;;4.40;99.90;;;;;;5049344;28;20923;-56
2020/12/08 07:46:28;;;;;;;13.23;11.93;;;4.40;99.90;;;;;;5046916;28;20498;-57
2020/12/08 07:49:05;;;;;;;13.93;12.53;;;4.50;99.90;;;;;;5047547;28;20514;-58
2020/12/08 07:51:33;;;;;;;13.90;11.87;;;4.40;99.90;;;;;;5048396;28;20526;-58
2020/12/08 07:54:01;;;;;;;14.83;11.97;;;4.40;99.90;;;;;;5044379;28;20539;-58
2020/12/08 07:56:31;;;;;;;13.30;11.90;;;4.40;99.90;;;;;;5035839;28;20532;-58
2020/12/08 07:58:59;;;;;;;13.63;12.20;;;4.40;99.90;;;;;;5036203;28;20246;-59
2020/12/08 08:01:28;;;;;;;12.07;10.87;;;4.30;99.90;;;;;;5045863;28;20480;-59
2020/12/08 08:04:23;;;;;;;12.27;10.97;;;4.30;99.90;;;;;;5041572;28;20482;-59
2020/12/08 08:06:50;;;;;;;13.70;10.70;;;4.30;99.90;;;;;;5038350;28;20243;-58
2020/12/08 08:09:17;;;;;;;11.37;10.27;;;4.20;99.90;;;;;;5046782;28;20482;-59
2020/12/08 08:11:46;;;;;;;11.87;10.67;;;4.20;99.90;;;;;;5046192;28;20557;-58
2020/12/08 08:14:14;;;;;;;10.93;9.87;;;4.10;99.90;;;;;;5046933;28;20470;-59
2020/12/08 08:16:41;;;;;;;11.13;9.73;;;4.10;99.90;;;;;;5046227;28;20501;-58
2020/12/08 08:19:09;;;;;;;11.23;10.13;;;4.00;99.90;;;;;;5046468;28;20480;-58
2020/12/08 08:21:36;;;;;;;11.83;10.57;;;4.10;99.90;;;;;;5041504;28;20842;-57
2020/12/08 08:24:03;;;;;;;12.03;10.70;;;4.10;99.90;;;;;;5038731;28;20539;-58
2020/12/08 08:26:31;;;;;;;11.40;10.30;;;4.10;99.90;;;;;;5046428;28;20555;-58
2020/12/08 08:28:59;;;;;;;11.97;10.70;;;4.10;99.90;;;;;;5046272;28;20487;-57
2020/12/08 08:31:26;;;;;;;11.93;10.70;;;4.10;99.90;;;;;;5038078;28;20484;-59
2020/12/08 08:33:54;;;;;;;12.67;11.37;;;4.10;99.90;;;;;;5040486;28;20523;-58
2020/12/08 08:36:22;;;;;;;12.40;11.13;;;4.00;99.90;;;;;;5046745;28;20472;-58
2020/12/08 08:38:49;;;;;;;11.17;10.07;;;4.00;99.90;;;;;;5046224;28;20506;-56
2020/12/08 08:41:17;;;;;;;12.47;10.47;;;4.00;99.90;;;;;;5046458;28;20508;-58
2020/12/08 08:43:44;;;;;;;12.23;11.03;;;4.00;99.90;;;;;;5043799;28;20486;-58
2020/12/08 08:46:12;;;;;;;12.90;11.10;;;4.10;99.90;;;;;;5028361;28;20981;-58
2020/12/08 08:48:40;;;;;;;11.63;10.53;;;4.00;99.90;;;;;;5037772;28;21089;-58
2020/12/08 08:51:07;;;;;;;11.63;10.50;;;4.10;99.90;;;;;;5039873;28;20599;-59
2020/12/08 08:53:35;;;;;;;12.50;11.20;;;4.10;99.90;;;;;;5023518;28;20488;-59
2020/12/08 08:56:02;;;;;;;11.97;10.77;;;4.20;99.90;;;;;;5022837;28;20484;-59
2020/12/08 08:58:30;;;;;;;12.53;11.33;;;4.20;99.90;;;;;;5028714;28;20473;-58
2020/12/08 09:00:58;;;;;;;12.37;11.17;;;4.30;99.90;;;;;;5035746;28;20563;-58
2020/12/08 09:03:26;;;;;;;11.67;10.47;;;4.20;99.90;;;;;;5038937;28;20998;-57
2020/12/08 09:05:53;;;;;;;12.10;10.90;;;4.30;99.90;;;;;;5048867;28;20482;-58
2020/12/08 09:08:24;;;;;;;12.87;11.57;;;4.40;99.90;;;;;;5048156;28;20489;-57
2020/12/08 09:10:52;;;;;;;12.70;11.40;;;4.50;99.90;;;;;;5047491;28;20504;-59
2020/12/08 09:13:19;;;;;;;13.20;11.87;;;4.50;99.90;;;;;;5027234;28;21025;-57
2020/12/08 09:15:47;;;;;;;14.63;12.67;;;4.60;99.90;;;;;;5028430;28;20535;-58
2020/12/08 09:18:14;;;;;;;15.27;12.30;;;4.60;99.90;;;;;;5029049;28;20572;-58
2020/12/08 09:20:43;;;;;;;14.47;12.97;;;4.60;99.90;;;;;;5028516;28;20475;-57
2020/12/08 09:23:10;;;;;;;15.13;13.63;;;4.60;99.90;;;;;;5028862;28;20475;-58
2020/12/08 09:25:37;;;;;;;15.40;13.67;;;4.60;99.90;;;;;;5028393;28;20486;-57
2020/12/08 09:28:05;;;;;;;16.20;14.17;;;4.60;99.90;;;;;;5028490;28;20901;-58
2020/12/08 09:30:32;;;;;;;15.37;13.73;;;4.60;99.90;;;;;;5028797;28;20481;-59
2020/12/08 09:32:59;;;;;;;16.33;14.63;;;4.60;99.90;;;;;;5045654;28;20513;-59
2020/12/08 09:35:27;;;;;;;19.57;16.03;;;4.70;99.90;;;;;;5048439;28;21227;-59
2020/12/08 09:37:55;;;;;;;17.30;15.00;;;4.70;99.90;;;;;;5046185;28;21010;-59
2020/12/08 09:40:23;;;;;;;17.30;15.50;;;4.80;99.90;;;;;;5044019;28;21070;-58
2020/12/08 09:42:51;;;;;;;17.13;15.33;;;4.80;99.90;;;;;;5043812;28;20612;-56
2020/12/08 09:45:18;;;;;;;18.73;15.93;;;4.80;99.90;;;;;;5049892;28;20820;-58
2020/12/08 09:47:45;;;;;;;18.07;16.17;;;4.70;99.90;;;;;;5054924;28;20502;-58
2020/12/08 09:50:13;;;;;;;16.83;15.03;;;4.80;99.90;;;;;;5042184;28;20467;-58
2020/12/08 09:52:41;;;;;;;17.07;13.67;;;4.80;99.90;;;;;;5028859;28;20994;-58
2020/12/08 09:55:10;;;;;;;18.53;16.10;;;5.00;99.90;;;;;;5028559;28;20463;-58
2020/12/08 09:57:38;;;;;;;15.97;14.27;;;5.00;99.90;;;;;;5027934;28;20247;-57
2020/12/08 10:00:06;;;;;;;15.80;14.10;;;5.00;99.90;;;;;;5022642;28;20878;-58
2020/12/08 10:02:33;;;;;;;14.93;13.40;;;5.00;99.90;;;;;;5028756;28;20495;-58
2020/12/08 10:05:01;;;;;;;18.10;15.27;;;5.10;99.90;;;;;;5038566;28;20496;-58
2020/12/08 10:07:28;;;;;;;16.70;14.33;;;5.10;99.90;;;;;;5048250;28;20575;-58
2020/12/08 10:09:55;;;;;;;17.83;15.10;;;5.20;99.90;;;;;;5047811;28;21030;-58
2020/12/08 10:12:24;;;;;;;21.03;17.60;;;5.50;99.90;;;;;;5048586;28;20490;-57
2020/12/08 10:14:51;;;;;;;18.77;16.27;;;5.80;99.90;;;;;;5047406;28;20482;-58
2020/12/08 10:17:19;;;;;;;20.40;16.87;;;5.80;99.90;;;;;;5048909;28;20493;-57
2020/12/08 10:19:51;;;;;;;19.00;16.57;;;5.80;99.90;;;;;;5048059;28;20702;-57
2020/12/08 10:22:19;;;;;;;20.13;16.70;;;6.00;99.90;;;;;;5048215;28;20243;-58
2020/12/08 10:24:46;;;;;;;20.13;16.40;;;6.20;99.90;;;;;;5031330;28;20731;-58
2020/12/08 10:27:13;;;;;;;18.77;16.77;;;6.40;99.90;;;;;;5039480;28;20254;-58
2020/12/08 10:29:42;;;;;;;18.37;16.37;;;6.40;99.90;;;;;;5047559;28;20802;-58
2020/12/08 10:32:09;;;;;;;21.97;16.10;;;6.40;99.90;;;;;;5047498;28;20246;-56
2020/12/08 10:34:37;;;;;;;18.37;15.50;;;6.40;99.90;;;;;;5047183;28;20237;-57
2020/12/08 10:37:05;;;;;;;19.53;17.33;;;6.60;99.90;;;;;;5047918;28;20236;-58
2020/12/08 10:39:33;;;;;;;18.90;16.90;;;6.70;99.90;;;;;;5046647;28;20247;-58
2020/12/08 10:42:00;;;;;;;18.43;16.23;;;6.70;99.90;;;;;;5035105;28;20635;-56
2020/12/08 10:44:27;;;;;;;18.80;16.80;;;6.70;99.90;;;;;;5038734;28;20224;-56
2020/12/08 10:46:55;;;;;;;18.97;16.97;;;6.60;99.90;;;;;;5048763;28;20628;-58
2020/12/08 10:49:23;;;;;;;19.20;17.20;;;6.60;99.90;;;;;;5034044;28;20499;-58
2020/12/08 10:51:52;;;;;;;19.47;17.20;;;6.80;99.90;;;;;;5039936;28;20236;-58
2020/12/08 10:54:21;;;;;;;18.83;16.70;;;6.90;99.90;;;;;;5047258;28;20240;-58
2020/12/08 10:56:51;;;;;;;17.97;16.17;;;6.90;99.90;;;;;;5047851;28;20243;-58
2020/12/08 10:59:19;;;;;;;17.77;15.90;;;6.90;99.90;;;;;;5046815;28;20327;-58
2020/12/08 11:02:08;;;;;;;18.00;16.07;;;7.00;99.90;;;;;;5046692;28;20231;-59
2020/12/08 11:04:36;;;;;;;17.87;15.97;;;6.90;99.90;;;;;;5047123;28;20239;-58
2020/12/08 11:07:03;;;;;;;18.40;16.30;;;6.90;99.90;;;;;;5047148;28;20521;-58
2020/12/08 11:09:31;;;;;;;16.67;14.97;;;7.10;99.90;;;;;;5047054;28;20762;-59
2020/12/08 11:11:59;;;;;;;16.87;15.07;;;7.20;99.90;;;;;;5045537;28;20243;-58
2020/12/08 11:14:28;;;;;;;17.23;15.40;;;7.30;99.90;;;;;;5042526;28;20265;-57
2020/12/08 11:16:55;;;;;;;16.67;15.00;;;7.20;99.90;;;;;;5044977;28;20297;-58
2020/12/08 11:19:36;;;;;;;18.13;16.23;;;7.00;99.90;;;;;;5031580;28;20330;-58
2020/12/08 11:22:04;;;;;;;18.00;15.43;;;6.90;99.90;;;;;;5027001;28;20232;-58
2020/12/08 11:24:40;;;;;;;16.87;14.87;;;6.80;99.90;;;;;;5077471;23;20689;-79
2020/12/08 11:27:14;;;;;;;18.87;16.37;;;6.80;99.90;;;;;;5046242;28;20286;-79
2020/12/08 11:29:41;;;;;;;17.60;15.80;;;6.70;99.90;;;;;;5054728;28;20248;-79
2020/12/08 11:32:12;;;;;;;17.63;15.83;;;6.80;99.90;;;;;;5048870;28;20372;-80
2020/12/08 11:34:40;;;;;;;18.00;16.17;;;6.70;99.90;;;;;;5068466;28;20759;-79
2020/12/08 11:37:07;;;;;;;18.10;16.30;;;6.70;99.90;;;;;;5067316;28;20288;-79
2020/12/08 11:39:35;;;;;;;17.43;15.63;;;6.70;99.90;;;;;;5062819;28;20239;-79
2020/12/08 11:42:03;;;;;;;17.57;15.77;;;6.90;99.90;;;;;;5051159;28;20238;-80
2020/12/08 11:44:30;;;;;;;17.93;16.00;;;7.00;99.90;;;;;;5066215;28;20241;-79
2020/12/08 11:46:58;;;;;;;17.10;15.30;;;7.10;99.90;;;;;;5059206;28;20243;-79
2020/12/08 11:49:25;;;;;;;17.77;15.27;;;7.20;99.90;;;;;;5058322;28;21050;-79
2020/12/08 11:51:54;;;;;;;16.90;14.90;;;7.20;99.90;;;;;;5066103;28;20251;-79
2020/12/08 11:54:21;;;;;;;18.43;16.53;;;7.30;99.90;;;;;;5060984;28;20253;-79
2020/12/08 11:56:49;;;;;;;15.73;14.20;;;7.20;99.90;;;;;;5068969;28;20243;-79
2020/12/08 11:59:17;;;;;;;16.90;15.10;;;7.30;99.90;;;;;;5064278;28;20231;-79
2020/12/08 12:01:45;;;;;;;16.57;14.87;;;7.20;99.90;;;;;;5053442;28;20251;-79
2020/12/08 12:04:12;;;;;;;16.77;15.07;;;7.30;99.90;;;;;;5045429;28;20244;-79
2020/12/08 12:06:39;;;;;;;18.07;15.57;;;7.10;99.90;;;;;;5040529;28;20252;-80
2020/12/08 12:09:08;;;;;;;16.90;15.17;;;7.10;99.90;;;;;;5040222;28;20231;-79
2020/12/08 12:11:35;;;;;;;17.77;15.87;;;7.00;99.90;;;;;;5042649;28;20642;-79
2020/12/08 12:14:03;;;;;;;17.17;15.40;;;7.00;99.90;;;;;;5042347;28;20257;-79
2020/12/08 12:16:31;;;;;;;15.87;14.27;;;6.90;99.90;;;;;;5037626;28;20239;-79
2020/12/08 12:18:59;;;;;;;17.87;16.13;;;6.90;99.90;;;;;;5073775;28;20658;-79
2020/12/08 12:21:26;;;;;;;17.60;15.80;;;7.00;99.90;;;;;;5054682;28;20730;-79
2020/12/08 12:23:54;;;;;;;18.13;15.30;;;7.00;99.90;;;;;;5051410;28;20253;-79
2020/12/08 12:26:43;;;;;;;18.33;16.37;;;7.00;99.90;;;;;;5055868;28;20238;-79
2020/12/08 12:29:10;;;;;;;17.90;15.97;;;6.90;99.90;;;;;;5056539;28;20251;-79
2020/12/08 12:31:37;;;;;;;16.90;15.17;;;6.80;99.90;;;;;;5064069;28;20273;-79
2020/12/08 12:34:05;;;;;;;17.90;16.00;;;6.80;99.90;;;;;;5065116;28;20250;-79
2020/12/08 12:36:32;;;;;;;17.67;15.80;;;6.80;99.90;;;;;;5064589;28;20235;-79
2020/12/08 12:39:00;;;;;;;17.73;15.83;;;6.90;99.90;;;;;;5073455;28;20230;-79
2020/12/08 12:41:27;;;;;;;17.60;15.70;;;6.80;99.90;;;;;;5063829;28;20227;-79
2020/12/08 12:43:56;;;;;;;16.43;14.73;;;6.80;99.90;;;;;;5059997;28;20235;-79
2020/12/08 12:46:23;;;;;;;18.83;16.30;;;6.90;99.90;;;;;;5067058;28;20250;-79